createdAt,value
2023-03-03T00:01:26.902Z,102610.09
2023-03-03T00:03:54.208Z,102612.44
2023-03-03T00:06:21.272Z,102619.13
2023-03-03T00:08:47.747Z,102613.78
2023-03-03T00:11:14.167Z,102617.13
2023-03-03T00:13:52.494Z,102618.44
2023-03-03T00:16:25.105Z,102611.75
2023-03-03T00:18:52.482Z,102611.22
2023-03-03T00:21:33.580Z,102616.75
2023-03-03T00:24:24.798Z,102620.75
2023-03-03T00:26:55.860Z,102621.78
2023-03-03T00:29:31.276Z,102622.59
2023-03-03T00:32:15.947Z,102630.81
2023-03-03T00:34:43.742Z,102637.16
2023-03-03T00:37:33.417Z,102634.81
2023-03-03T00:40:18.439Z,102644.22
2023-03-03T00:42:52.079Z,102635.50
2023-03-03T00:45:27.407Z,102629.81
2023-03-03T00:47:54.359Z,102632.84
2023-03-03T00:50:38.951Z,102637.19
2023-03-03T00:53:30.012Z,102633.84
2023-03-03T00:55:58.043Z,102635.84
2023-03-03T00:58:25.230Z,102640.53
2023-03-03T01:00:53.774Z,102636.84
2023-03-03T01:03:22.702Z,102637.00
2023-03-03T01:05:49.687Z,102636.34
2023-03-03T01:08:16.654Z,102643.69
2023-03-03T01:10:48.531Z,102643.53
2023-03-03T01:13:14.898Z,102641.69
2023-03-03T01:15:41.397Z,102642.53
2023-03-03T01:18:09.290Z,102648.38
2023-03-03T01:20:35.747Z,102650.22
2023-03-03T01:23:02.270Z,102641.19
2023-03-03T01:25:28.694Z,102644.03
2023-03-03T01:27:55.190Z,102643.03
2023-03-03T01:30:22.207Z,102641.84
2023-03-03T01:32:48.816Z,102637.84
2023-03-03T01:35:15.291Z,102640.00
2023-03-03T01:37:41.663Z,102643.53
2023-03-03T01:40:14.886Z,102644.34
2023-03-03T01:42:41.234Z,102637.19
2023-03-03T01:45:15.929Z,102635.50
2023-03-03T01:47:51.328Z,102639.19
2023-03-03T01:50:31.534Z,102646.56
2023-03-03T01:52:59.779Z,102643.69
2023-03-03T01:55:31.130Z,102643.53
2023-03-03T01:58:09.088Z,102649.56
2023-03-03T02:00:39.318Z,102646.56
2023-03-03T02:03:06.247Z,102650.91
2023-03-03T02:05:35.169Z,102641.19
2023-03-03T02:08:02.182Z,102650.22
2023-03-03T02:10:29.562Z,102650.91
2023-03-03T02:12:56.977Z,102645.38
2023-03-03T02:15:49.494Z,102642.34
2023-03-03T02:18:19.717Z,102646.88
2023-03-03T02:21:20.686Z,102647.03
2023-03-03T02:23:58.103Z,102649.56
2023-03-03T02:26:27.150Z,102636.53
2023-03-03T02:28:53.643Z,102643.53
2023-03-03T02:31:22.826Z,102641.88
2023-03-03T02:33:52.386Z,102646.56
2023-03-03T02:36:22.491Z,102645.22
2023-03-03T02:38:51.788Z,102641.88
2023-03-03T02:41:32.903Z,102647.22
2023-03-03T02:44:18.420Z,102644.22
2023-03-03T02:46:47.049Z,102648.22
2023-03-03T02:49:16.535Z,102641.19
2023-03-03T02:51:43.482Z,102652.75
2023-03-03T02:54:12.178Z,102652.91
2023-03-03T02:56:38.664Z,102641.53
2023-03-03T02:59:05.434Z,102648.22
2023-03-03T03:01:36.889Z,102644.41
2023-03-03T03:04:14.969Z,102656.59
2023-03-03T03:06:41.791Z,102652.41
2023-03-03T03:09:09.546Z,102655.25
2023-03-03T03:11:36.247Z,102658.94
2023-03-03T03:14:03.663Z,102653.91
2023-03-03T03:16:31.840Z,102650.22
2023-03-03T03:18:59.929Z,102657.25
2023-03-03T03:21:26.292Z,102648.41
2023-03-03T03:23:52.684Z,102650.56
2023-03-03T03:26:21.032Z,102642.38
2023-03-03T03:28:48.449Z,102646.88
2023-03-03T03:31:15.659Z,102645.72
2023-03-03T03:33:42.045Z,102646.56
2023-03-03T03:36:08.869Z,102648.56
2023-03-03T03:38:36.740Z,102646.88
2023-03-03T03:41:04.420Z,102643.38
2023-03-03T03:43:31.007Z,102649.22
2023-03-03T03:45:57.429Z,102663.13
2023-03-03T03:48:23.834Z,102661.28
2023-03-03T03:50:50.704Z,102663.63
2023-03-03T03:53:18.621Z,102659.59
2023-03-03T03:55:46.067Z,102662.28
2023-03-03T03:58:17.335Z,102668.47
2023-03-03T04:00:45.247Z,102670.31
2023-03-03T04:03:14.483Z,102667.63
2023-03-03T04:05:41.077Z,102665.63
2023-03-03T04:08:07.937Z,102672.97
2023-03-03T04:10:34.420Z,102671.31
2023-03-03T04:13:00.893Z,102673.84
2023-03-03T04:15:27.431Z,102670.97
2023-03-03T04:17:53.777Z,102670.16
2023-03-03T04:20:20.350Z,102663.78
2023-03-03T04:22:46.806Z,102666.63
2023-03-03T04:25:16.595Z,102666.13
2023-03-03T04:27:44.271Z,102659.78
2023-03-03T04:30:11.724Z,102660.28
2023-03-03T04:32:38.190Z,102668.47
2023-03-03T04:35:08.384Z,102670.97
2023-03-03T04:37:35.702Z,102673.16
2023-03-03T04:40:02.105Z,102660.59
2023-03-03T04:42:28.848Z,102664.97
2023-03-03T04:44:55.329Z,102668.31
2023-03-03T04:47:21.926Z,102670.31
2023-03-03T04:49:48.307Z,102680.00
2023-03-03T04:52:14.694Z,102679.00
2023-03-03T04:54:41.065Z,102673.66
2023-03-03T04:57:09.378Z,102678.19
2023-03-03T04:59:36.166Z,102679.00
2023-03-03T05:02:04.699Z,102687.72
2023-03-03T05:04:31.607Z,102673.84
2023-03-03T05:06:58.073Z,102669.97
2023-03-03T05:09:24.526Z,102668.31
2023-03-03T05:11:51.626Z,102663.94
2023-03-03T05:14:18.410Z,102655.59
2023-03-03T05:16:44.777Z,102658.13
2023-03-03T05:19:11.708Z,102660.59
2023-03-03T05:21:42.166Z,102662.28
2023-03-03T05:24:13.078Z,102667.63
2023-03-03T05:26:40.532Z,102665.63
2023-03-03T05:29:08.258Z,102676.34
2023-03-03T05:31:34.862Z,102663.94
2023-03-03T05:34:01.355Z,102663.28
2023-03-03T05:36:27.689Z,102658.59
2023-03-03T05:38:54.079Z,102657.25
2023-03-03T05:41:20.630Z,102666.28
2023-03-03T05:43:47.227Z,102667.81
2023-03-03T05:46:13.646Z,102667.97
2023-03-03T05:48:40.010Z,102677.84
2023-03-03T05:51:06.353Z,102675.31
2023-03-03T05:53:32.741Z,102673.31
2023-03-03T05:55:59.107Z,102670.31
2023-03-03T05:58:25.692Z,102677.34
2023-03-03T06:00:52.043Z,102670.97
2023-03-03T06:03:18.446Z,102684.03
2023-03-03T06:05:44.870Z,102672.66
2023-03-03T06:08:11.275Z,102679.69
2023-03-03T06:10:37.807Z,102684.19
2023-03-03T06:13:04.177Z,102692.06
2023-03-03T06:15:30.593Z,102687.53
2023-03-03T06:17:57.003Z,102690.06
2023-03-03T06:20:23.419Z,102691.53
2023-03-03T06:22:49.787Z,102685.19
2023-03-03T06:25:16.196Z,102695.06
2023-03-03T06:27:42.621Z,102698.91
2023-03-03T06:30:09.670Z,102694.56
2023-03-03T06:32:36.191Z,102696.22
2023-03-03T06:35:02.579Z,102695.41
2023-03-03T06:37:29.378Z,102703.44
2023-03-03T06:39:55.840Z,102707.78
2023-03-03T06:42:23.975Z,102697.91
2023-03-03T06:44:50.765Z,102709.47
2023-03-03T06:47:17.214Z,102703.94
2023-03-03T06:49:43.582Z,102705.59
2023-03-03T06:52:22.547Z,102711.13
2023-03-03T06:54:49.493Z,102718.66
2023-03-03T06:57:33.224Z,102714.16
2023-03-03T07:00:12.988Z,102716.97
2023-03-03T07:02:40.027Z,102721.19
2023-03-03T07:05:14.498Z,102721.00
2023-03-03T07:07:41.103Z,102728.69
2023-03-03T07:10:25.027Z,102730.38
2023-03-03T07:12:51.733Z,102733.72
2023-03-03T07:15:23.230Z,102742.41
2023-03-03T07:17:54.970Z,102741.25
2023-03-03T07:20:31.673Z,102741.06
2023-03-03T07:22:58.481Z,102737.56
2023-03-03T07:25:35.293Z,102743.28
2023-03-03T07:28:22.445Z,102747.63
2023-03-03T07:30:48.930Z,102749.28
2023-03-03T07:33:25.238Z,102754.47
2023-03-03T07:35:52.356Z,102747.28
2023-03-03T07:38:31.058Z,102755.13
2023-03-03T07:41:00.586Z,102753.66
2023-03-03T07:43:31.958Z,102754.31
2023-03-03T07:46:10.269Z,102765.38
2023-03-03T07:48:42.151Z,102768.03
2023-03-03T07:51:29.030Z,102768.38
2023-03-03T07:54:21.651Z,102766.38
2023-03-03T07:56:48.059Z,102769.53
2023-03-03T07:59:21.999Z,102769.19
2023-03-03T08:01:52.726Z,102772.69
2023-03-03T08:04:50.952Z,102772.69
2023-03-03T08:07:19.390Z,102773.88
2023-03-03T08:09:54.427Z,102782.59
2023-03-03T08:12:38.770Z,102785.94
2023-03-03T08:15:23.143Z,102790.97
2023-03-03T08:17:51.088Z,102801.16
2023-03-03T08:20:44.637Z,102798.31
2023-03-03T08:23:12.311Z,102804.34
2023-03-03T08:25:39.411Z,102798.81
2023-03-03T08:28:05.767Z,102805.69
2023-03-03T08:30:32.118Z,102800.81
2023-03-03T08:32:58.523Z,102795.44
2023-03-03T08:35:24.965Z,102803.34
2023-03-03T08:37:51.588Z,102807.84
2023-03-03T08:40:18.097Z,102795.75
2023-03-03T08:42:44.481Z,102796.28
2023-03-03T08:45:11.129Z,102807.28
2023-03-03T08:47:46.268Z,102807.97
2023-03-03T08:50:14.575Z,102796.72
2023-03-03T08:52:41.108Z,102800.06
2023-03-03T08:55:08.844Z,102804.09
2023-03-03T08:57:35.293Z,102801.88
2023-03-03T09:00:02.012Z,102795.34
2023-03-03T09:02:28.541Z,102798.34
2023-03-03T09:04:54.949Z,102806.41
2023-03-03T09:07:21.345Z,102800.03
2023-03-03T09:09:47.796Z,102808.41
2023-03-03T09:12:22.565Z,102808.06
2023-03-03T09:14:51.291Z,102806.38
2023-03-03T09:17:28.711Z,102801.84
2023-03-03T09:20:03.107Z,102806.34
2023-03-03T09:22:29.565Z,102803.13
2023-03-03T09:24:58.917Z,102793.53
2023-03-03T09:27:35.195Z,102802.56
2023-03-03T09:30:22.910Z,102806.22
2023-03-03T09:32:49.283Z,102800.81
2023-03-03T09:35:38.769Z,102799.94
2023-03-03T09:38:22.722Z,102796.91
2023-03-03T09:41:15.347Z,102804.41
2023-03-03T09:43:56.779Z,102797.00
2023-03-03T09:47:04.596Z,102806.72
2023-03-03T09:49:37.893Z,102811.09
2023-03-03T09:52:16.372Z,102817.78
2023-03-03T09:54:51.767Z,102809.72
2023-03-03T09:57:36.037Z,102812.06
2023-03-03T10:00:56.706Z,102815.03
2023-03-03T10:03:41.715Z,102812.66
2023-03-03T10:06:23.215Z,102813.97
2023-03-03T10:09:24.910Z,102817.97
2023-03-03T10:12:02.721Z,102810.16
2023-03-03T10:14:40.442Z,102812.72
2023-03-03T10:17:19.824Z,102808.56
2023-03-03T10:20:12.276Z,102806.78
2023-03-03T10:22:48.658Z,102812.53
2023-03-03T10:25:36.835Z,102799.47
2023-03-03T10:28:30.271Z,102809.25
2023-03-03T10:31:11.229Z,102807.41
2023-03-03T10:34:00.312Z,102806.31
2023-03-03T10:36:35.226Z,102803.69
2023-03-03T10:39:21.992Z,102803.22
2023-03-03T10:42:03.359Z,102806.69
2023-03-03T10:44:40.200Z,102808.88
2023-03-03T10:47:33.901Z,102799.97
2023-03-03T10:50:10.037Z,102807.00
2023-03-03T10:52:53.227Z,102799.00
2023-03-03T10:55:36.412Z,102799.72
2023-03-03T10:58:20.146Z,102800.88
2023-03-03T11:01:15.902Z,102806.50
2023-03-03T11:03:51.545Z,102790.63
2023-03-03T11:06:26.845Z,102796.69
2023-03-03T11:08:59.901Z,102792.41
2023-03-03T11:11:55.570Z,102800.44
2023-03-03T11:14:41.718Z,102792.56
2023-03-03T11:17:34.970Z,102783.84
2023-03-03T11:20:07.772Z,102785.81
2023-03-03T11:22:54.162Z,102784.41
2023-03-03T11:25:46.487Z,102779.69
2023-03-03T11:28:46.791Z,102775.97
2023-03-03T11:31:28.808Z,102774.88
2023-03-03T11:34:31.084Z,102767.72
2023-03-03T11:37:04.004Z,102769.63
2023-03-03T11:39:30.622Z,102777.34
2023-03-03T11:42:28.472Z,102773.25
2023-03-03T11:45:03.582Z,102768.72
2023-03-03T11:47:37.745Z,102765.59
2023-03-03T11:50:24.683Z,102773.75
2023-03-03T11:53:18.238Z,102767.28
2023-03-03T11:55:49.694Z,102769.69
2023-03-03T11:58:30.913Z,102768.22
2023-03-03T12:01:16.293Z,102761.38
2023-03-03T12:04:03.092Z,102758.38
2023-03-03T12:07:12.926Z,102752.41
2023-03-03T12:09:55.150Z,102761.28
2023-03-03T12:12:28.065Z,102756.50
2023-03-03T12:15:09.254Z,102752.28
2023-03-03T12:17:41.637Z,102754.22
2023-03-03T12:20:35.519Z,102746.53
2023-03-03T12:23:39.767Z,102742.41
2023-03-03T12:26:46.217Z,102742.22
2023-03-03T12:29:36.666Z,102728.06
2023-03-03T12:32:21.636Z,102736.78
2023-03-03T12:34:55.199Z,102735.13
2023-03-03T12:37:40.779Z,102739.25
2023-03-03T12:40:30.310Z,102730.56
2023-03-03T12:43:03.076Z,102729.91
2023-03-03T12:45:49.152Z,102728.25
2023-03-03T12:48:25.024Z,102723.88
2023-03-03T12:51:10.185Z,102718.69
2023-03-03T12:54:04.527Z,102712.66
2023-03-03T12:56:37.690Z,102718.06
2023-03-03T12:59:18.216Z,102713.50
2023-03-03T13:02:09.774Z,102716.44
2023-03-03T13:04:43.105Z,102714.56
2023-03-03T13:07:19.508Z,102716.81
2023-03-03T13:10:13.446Z,102725.97
2023-03-03T13:12:47.746Z,102724.28
2023-03-03T13:15:31.523Z,102720.13
2023-03-03T13:18:07.406Z,102718.66
2023-03-03T13:20:50.971Z,102720.72
2023-03-03T13:23:52.814Z,102725.28
2023-03-03T13:26:34.332Z,102727.53
2023-03-03T13:29:19.144Z,102721.91
2023-03-03T13:31:54.442Z,102720.00
2023-03-03T13:34:33.269Z,102720.47
2023-03-03T13:37:15.993Z,102717.94
2023-03-03T13:40:05.723Z,102717.13
2023-03-03T13:42:41.588Z,102722.94
2023-03-03T13:45:43.167Z,102712.09
2023-03-03T13:48:27.892Z,102725.81
2023-03-03T13:50:58.346Z,102718.13
2023-03-03T13:53:38.604Z,102723.91
2023-03-03T13:56:36.354Z,102721.22
2023-03-03T13:59:28.993Z,102711.44
2023-03-03T14:02:39.126Z,102717.25
2023-03-03T14:05:20.690Z,102720.34
2023-03-03T14:08:03.135Z,102711.22
2023-03-03T14:10:38.093Z,102717.59
2023-03-03T14:13:31.931Z,102706.16
2023-03-03T14:16:01.987Z,102710.91
2023-03-03T14:18:34.470Z,102709.25
2023-03-03T14:21:11.004Z,102709.47
2023-03-03T14:23:46.479Z,102715.69
2023-03-03T14:26:13.457Z,102701.56
2023-03-03T14:28:41.103Z,102702.59
2023-03-03T14:31:28.762Z,102698.63
2023-03-03T14:34:19.629Z,102698.22
2023-03-03T14:36:46.015Z,102689.31
2023-03-03T14:39:39.470Z,102692.66
2023-03-03T14:42:14.508Z,102698.88
2023-03-03T14:44:59.213Z,102691.81
2023-03-03T14:47:27.561Z,102692.44
2023-03-03T14:49:55.742Z,102692.88
2023-03-03T14:52:30.438Z,102681.25
2023-03-03T14:55:00.349Z,102682.91
2023-03-03T14:57:37.474Z,102689.16
2023-03-03T15:00:28.827Z,102686.25
2023-03-03T15:03:14.850Z,102682.50
2023-03-03T15:05:52.149Z,102680.44
2023-03-03T15:08:30.573Z,102677.97
2023-03-03T15:11:20.274Z,102683.34
2023-03-03T15:13:46.938Z,102669.66
2023-03-03T15:16:30.882Z,102675.03
2023-03-03T15:19:17.658Z,102680.66
2023-03-03T15:22:14.553Z,102677.50
2023-03-03T15:24:50.415Z,102672.50
2023-03-03T15:27:25.150Z,102669.19
2023-03-03T15:30:25.018Z,102666.25
2023-03-03T15:33:06.657Z,102673.72
2023-03-03T15:35:41.451Z,102670.38
2023-03-03T15:38:18.578Z,102667.06
2023-03-03T15:40:49.588Z,102663.72
2023-03-03T15:43:27.363Z,102664.13
2023-03-03T15:46:21.270Z,102657.47
2023-03-03T15:49:33.679Z,102663.28
2023-03-03T15:52:12.426Z,102662.66
2023-03-03T15:54:59.926Z,102657.66
2023-03-03T15:58:05.899Z,102660.34
2023-03-03T16:01:03.636Z,102653.69
2023-03-03T16:03:37.879Z,102656.97
2023-03-03T16:06:39.056Z,102661.94
2023-03-03T16:09:26.784Z,102655.28
2023-03-03T16:12:04.760Z,102662.91
2023-03-03T16:15:00.530Z,102664.78
2023-03-03T16:18:04.377Z,102663.13
2023-03-03T16:20:40.268Z,102664.34
2023-03-03T16:23:17.196Z,102675.50
2023-03-03T16:26:13.390Z,102671.34
2023-03-03T16:28:56.498Z,102675.09
2023-03-03T16:31:28.881Z,102664.47
2023-03-03T16:34:06.652Z,102667.38
2023-03-03T16:36:51.112Z,102658.66
2023-03-03T16:39:48.398Z,102660.09
2023-03-03T16:42:25.080Z,102661.75
2023-03-03T16:45:17.517Z,102654.69
2023-03-03T16:47:47.010Z,102664.63
2023-03-03T16:50:29.925Z,102667.53
2023-03-03T16:53:20.615Z,102661.31
2023-03-03T16:55:53.922Z,102677.03
2023-03-03T16:58:42.297Z,102667.28
2023-03-03T17:01:27.410Z,102672.88
2023-03-03T17:04:04.540Z,102671.41
2023-03-03T17:06:41.332Z,102674.09
2023-03-03T17:09:45.087Z,102668.72
2023-03-03T17:12:36.911Z,102675.13
2023-03-03T17:15:15.365Z,102669.94
2023-03-03T17:17:50.969Z,102670.13
2023-03-03T17:20:30.953Z,102679.88
2023-03-03T17:23:12.504Z,102672.19
2023-03-03T17:25:56.923Z,102675.72
2023-03-03T17:28:40.661Z,102680.25
2023-03-03T17:31:12.858Z,102678.59
2023-03-03T17:33:58.912Z,102676.13
2023-03-03T17:37:03.431Z,102687.06
2023-03-03T17:39:48.618Z,102691.44
2023-03-03T17:42:34.223Z,102685.41
2023-03-03T17:45:04.178Z,102688.94
2023-03-03T17:47:47.480Z,102696.19
2023-03-03T17:50:39.195Z,102692.84
2023-03-03T17:54:00.099Z,102702.59
2023-03-03T17:56:49.907Z,102699.91
2023-03-03T17:59:32.337Z,102700.94
2023-03-03T18:02:30.374Z,102711.69
2023-03-03T18:05:14.787Z,102701.31
2023-03-03T18:08:00.516Z,102702.34
2023-03-03T18:10:57.511Z,102705.88
2023-03-03T18:13:55.554Z,102709.59
2023-03-03T18:17:04.381Z,102712.03
2023-03-03T18:20:01.086Z,102716.97
2023-03-03T18:22:48.627Z,102715.28
2023-03-03T18:25:19.251Z,102712.59
2023-03-03T18:27:48.078Z,102723.38
2023-03-03T18:30:17.460Z,102723.38
2023-03-03T18:32:56.268Z,102723.38
2023-03-03T18:35:41.065Z,102736.84
2023-03-03T18:38:16.558Z,102728.59
2023-03-03T18:41:03.513Z,102732.47
2023-03-03T18:43:45.006Z,102728.09
2023-03-03T18:46:31.300Z,102729.78
2023-03-03T18:49:00.883Z,102731.81
2023-03-03T18:51:39.706Z,102736.75
2023-03-03T18:54:12.108Z,102732.84
2023-03-03T18:56:59.829Z,102734.72
2023-03-03T18:59:35.289Z,102734.72
2023-03-03T19:02:33.969Z,102729.50
2023-03-03T19:05:23.221Z,102740.91
2023-03-03T19:08:00.133Z,102743.81
2023-03-03T19:10:51.407Z,102741.75
2023-03-03T19:13:33.026Z,102737.56
2023-03-03T19:16:02.209Z,102742.16
2023-03-03T19:18:33.068Z,102749.38
2023-03-03T19:21:19.904Z,102736.75
2023-03-03T19:23:50.443Z,102740.28
2023-03-03T19:26:25.585Z,102734.88
2023-03-03T19:29:15.188Z,102730.34
2023-03-03T19:31:51.883Z,102736.28
2023-03-03T19:34:18.185Z,102729.44
2023-03-03T19:37:01.174Z,102732.13
2023-03-03T19:39:43.036Z,102735.47
2023-03-03T19:42:39.945Z,102735.66
2023-03-03T19:45:12.139Z,102734.63
2023-03-03T19:47:54.258Z,102732.13
2023-03-03T19:50:29.771Z,102741.88
2023-03-03T19:53:06.273Z,102741.88
2023-03-03T19:56:10.792Z,102747.06
2023-03-03T19:58:52.037Z,102744.38
2023-03-03T20:01:42.429Z,102741.69
2023-03-03T20:04:21.204Z,102749.97
2023-03-03T20:06:56.272Z,102746.63
2023-03-03T20:09:39.500Z,102749.97
2023-03-03T20:12:29.231Z,102749.75
2023-03-03T20:15:13.891Z,102753.47
2023-03-03T20:17:51.960Z,102745.41
2023-03-03T20:20:46.774Z,102758.22
2023-03-03T20:23:29.317Z,102756.16
2023-03-03T20:26:25.488Z,102749.31
2023-03-03T20:29:08.900Z,102753.69
2023-03-03T20:31:45.218Z,102755.34
2023-03-03T20:34:36.293Z,102750.97
2023-03-03T20:37:25.460Z,102756.53
2023-03-03T20:40:21.407Z,102752.00
2023-03-03T20:42:47.709Z,102751.16
2023-03-03T20:45:32.993Z,102755.72
2023-03-03T20:48:05.443Z,102758.41
2023-03-03T20:50:39.545Z,102757.56
2023-03-03T20:53:45.167Z,102752.19
2023-03-03T20:56:28.887Z,102751.16
2023-03-03T20:59:08.895Z,102749.50
2023-03-03T21:01:43.687Z,102749.50
2023-03-03T21:04:20.746Z,102744.97
2023-03-03T21:06:47.523Z,102755.34
2023-03-03T21:09:36.074Z,102756.53
2023-03-03T21:12:11.164Z,102756.53
2023-03-03T21:14:37.787Z,102756.53
2023-03-03T21:17:28.180Z,102751.16
2023-03-03T21:19:54.534Z,102758.41
2023-03-03T21:22:21.454Z,102753.03
2023-03-03T21:24:57.482Z,102764.63
2023-03-03T21:27:34.433Z,102761.13
2023-03-03T21:30:12.658Z,102762.97
2023-03-03T21:32:45.722Z,102754.06
2023-03-03T21:35:18.219Z,102757.56
2023-03-03T21:37:51.685Z,102752.81
2023-03-03T21:40:27.397Z,102753.03
2023-03-03T21:42:56.386Z,102747.81
2023-03-03T21:45:23.710Z,102752.38
2023-03-03T21:47:51.447Z,102755.66
2023-03-03T21:50:21.427Z,102748.22
2023-03-03T21:52:48.419Z,102747.19
2023-03-03T21:55:14.849Z,102743.88
2023-03-03T21:57:41.189Z,102746.56
2023-03-03T22:00:09.135Z,102744.03
2023-03-03T22:02:36.436Z,102744.25
2023-03-03T22:05:03.725Z,102751.09
2023-03-03T22:07:30.206Z,102754.66
2023-03-03T22:09:56.574Z,102750.72
2023-03-03T22:12:22.933Z,102748.22
2023-03-03T22:14:49.354Z,102741.19
2023-03-03T22:17:15.727Z,102758.16
2023-03-03T22:19:42.067Z,102750.72
2023-03-03T22:22:08.431Z,102741.78
2023-03-03T22:24:34.778Z,102744.47
2023-03-03T22:27:01.120Z,102747.81
2023-03-03T22:29:27.459Z,102746.16
2023-03-03T22:31:53.835Z,102743.47
2023-03-03T22:34:20.488Z,102742.84
2023-03-03T22:36:46.829Z,102745.34
2023-03-03T22:39:13.178Z,102742.84
2023-03-03T22:41:39.522Z,102749.88
2023-03-03T22:44:05.898Z,102744.47
2023-03-03T22:46:32.283Z,102738.50
2023-03-03T22:48:58.658Z,102748.22
2023-03-03T22:51:26.079Z,102748.22
2023-03-03T22:53:53.046Z,102747.19
2023-03-03T22:56:19.427Z,102741.19
2023-03-03T22:58:45.838Z,102744.69
2023-03-03T23:01:12.230Z,102742.19
2023-03-03T23:03:39.244Z,102748.22
2023-03-03T23:06:06.019Z,102749.06
2023-03-03T23:08:32.392Z,102750.06
2023-03-03T23:10:58.737Z,102756.31
2023-03-03T23:13:26.986Z,102755.66
2023-03-03T23:15:53.392Z,102756.03
2023-03-03T23:18:19.767Z,102757.34
2023-03-03T23:20:46.259Z,102760.66
2023-03-03T23:23:12.777Z,102761.88
2023-03-03T23:25:39.210Z,102758.16
2023-03-03T23:28:05.925Z,102750.72
2023-03-03T23:30:32.256Z,102748.03
2023-03-03T23:32:58.618Z,102749.88
2023-03-03T23:35:24.965Z,102749.88
2023-03-03T23:37:51.365Z,102752.34
2023-03-03T23:40:17.919Z,102753.34
2023-03-03T23:42:44.858Z,102755.03
2023-03-03T23:45:12.309Z,102747.75
2023-03-03T23:47:38.880Z,102743.22
2023-03-03T23:50:05.757Z,102750.66
2023-03-03T23:52:32.145Z,102738.22
2023-03-03T23:54:58.631Z,102734.50
2023-03-03T23:57:24.991Z,102740.72
2023-03-03T23:59:51.395Z,102750.66
